sensor_id;sensor_type;location;lat;lon;timestamp;P1;P2;P0
55518;PMS5003;41724;51.176;-0.708;2024-01-11T00:02:07;28;22;
55518;PMS5003;41724;51.176;-0.708;2024-01-11T00:04:35;23;18;
55518;PMS5003;41724;51.176;-0.708;2024-01-11T00:07:02;18;17;
55518;PMS5003;41724;51.176;-0.708;2024-01-11T00:09:29;25;22;
55518;PMS5003;41724;51.176;-0.708;2024-01-11T00:11:56;25;23;
55518;PMS5003;41724;51.176;-0.708;2024-01-11T00:14:23;17;17;
55518;PMS5003;41724;51.176;-0.708;2024-01-11T00:16:51;11;11;
55518;PMS5003;41724;51.176;-0.708;2024-01-11T00:19:18;12;12;
55518;PMS5003;41724;51.176;-0.708;2024-01-11T00:21:45;13;11;
55518;PMS5003;41724;51.176;-0.708;2024-01-11T00:24:13;13;12;
55518;PMS5003;41724;51.176;-0.708;2024-01-11T00:26:40;11;11;
55518;PMS5003;41724;51.176;-0.708;2024-01-11T00:29:07;12;11;
55518;PMS5003;41724;51.176;-0.708;2024-01-11T00:31:34;12;11;
55518;PMS5003;41724;51.176;-0.708;2024-01-11T00:34:02;9;9;
55518;PMS5003;41724;51.176;-0.708;2024-01-11T00:36:29;12;11;
55518;PMS5003;41724;51.176;-0.708;2024-01-11T00:38:57;8;8;
55518;PMS5003;41724;51.176;-0.708;2024-01-11T00:41:24;11;9;
55518;PMS5003;41724;51.176;-0.708;2024-01-11T00:43:51;13;13;
55518;PMS5003;41724;51.176;-0.708;2024-01-11T00:46:19;13;12;
55518;PMS5003;41724;51.176;-0.708;2024-01-11T00:48:46;14;12;
55518;PMS5003;41724;51.176;-0.708;2024-01-11T00:51:13;21;17;
55518;PMS5003;41724;51.176;-0.708;2024-01-11T00:53:41;11;11;
55518;PMS5003;41724;51.176;-0.708;2024-01-11T00:56:15;12;12;
55518;PMS5003;41724;51.176;-0.708;2024-01-11T00:58:43;12;12;
55518;PMS5003;41724;51.176;-0.708;2024-01-11T01:01:11;16;14;
55518;PMS5003;41724;51.176;-0.708;2024-01-11T01:03:39;13;12;
55518;PMS5003;41724;51.176;-0.708;2024-01-11T01:06:06;12;10;
55518;PMS5003;41724;51.176;-0.708;2024-01-11T01:08:33;11;11;
55518;PMS5003;41724;51.176;-0.708;2024-01-11T01:11:01;9;9;
55518;PMS5003;41724;51.176;-0.708;2024-01-11T01:13:28;16;13;
55518;PMS5003;41724;51.176;-0.708;2024-01-11T01:15:55;11;11;
55518;PMS5003;41724;51.176;-0.708;2024-01-11T01:18:23;12;12;
55518;PMS5003;41724;51.176;-0.708;2024-01-11T01:20:50;11;11;
55518;PMS5003;41724;51.176;-0.708;2024-01-11T01:23:17;14;12;
55518;PMS5003;41724;51.176;-0.708;2024-01-11T01:25:45;14;13;
55518;PMS5003;41724;51.176;-0.708;2024-01-11T01:28:11;13;12;
55518;PMS5003;41724;51.176;-0.708;2024-01-11T01:30:39;13;13;
55518;PMS5003;41724;51.176;-0.708;2024-01-11T01:33:06;13;12;
55518;PMS5003;41724;51.176;-0.708;2024-01-11T01:35:34;13;11;
55518;PMS5003;41724;51.176;-0.708;2024-01-11T01:38:01;12;12;
55518;PMS5003;41724;51.176;-0.708;2024-01-11T01:40:29;16;13;
55518;PMS5003;41724;51.176;-0.708;2024-01-11T01:42:58;11;11;
55518;PMS5003;41724;51.176;-0.708;2024-01-11T01:45:25;13;12;
55518;PMS5003;41724;51.176;-0.708;2024-01-11T01:47:53;13;11;
55518;PMS5003;41724;51.176;-0.708;2024-01-11T01:50:21;11;11;
55518;PMS5003;41724;51.176;-0.708;2024-01-11T01:52:49;12;12;
55518;PMS5003;41724;51.176;-0.708;2024-01-11T01:55:17;12;11;
55518;PMS5003;41724;51.176;-0.708;2024-01-11T01:57:46;12;11;
55518;PMS5003;41724;51.176;-0.708;2024-01-11T02:00:14;13;12;
55518;PMS5003;41724;51.176;-0.708;2024-01-11T02:02:43;11;9;
55518;PMS5003;41724;51.176;-0.708;2024-01-11T02:05:11;12;11;
55518;PMS5003;41724;51.176;-0.708;2024-01-11T02:07:39;12;12;
55518;PMS5003;41724;51.176;-0.708;2024-01-11T02:10:07;17;17;
55518;PMS5003;41724;51.176;-0.708;2024-01-11T02:12:35;17;13;
55518;PMS5003;41724;51.176;-0.708;2024-01-11T02:15:02;11;10;
55518;PMS5003;41724;51.176;-0.708;2024-01-11T02:17:30;11;11;
55518;PMS5003;41724;51.176;-0.708;2024-01-11T02:19:58;12;11;
55518;PMS5003;41724;51.176;-0.708;2024-01-11T02:22:27;12;11;
55518;PMS5003;41724;51.176;-0.708;2024-01-11T02:24:56;16;12;
55518;PMS5003;41724;51.176;-0.708;2024-01-11T02:27:24;13;12;
55518;PMS5003;41724;51.176;-0.708;2024-01-11T02:29:51;13;12;
55518;PMS5003;41724;51.176;-0.708;2024-01-11T02:32:18;12;11;
55518;PMS5003;41724;51.176;-0.708;2024-01-11T02:34:46;13;11;
55518;PMS5003;41724;51.176;-0.708;2024-01-11T02:37:14;18;16;
55518;PMS5003;41724;51.176;-0.708;2024-01-11T02:39:41;15;13;
55518;PMS5003;41724;51.176;-0.708;2024-01-11T02:42:08;15;13;
55518;PMS5003;41724;51.176;-0.708;2024-01-11T02:44:35;20;16;
55518;PMS5003;41724;51.176;-0.708;2024-01-11T02:47:02;16;15;
55518;PMS5003;41724;51.176;-0.708;2024-01-11T02:49:30;23;21;
55518;PMS5003;41724;51.176;-0.708;2024-01-11T02:51:57;16;16;
55518;PMS5003;41724;51.176;-0.708;2024-01-11T02:54:24;15;15;
55518;PMS5003;41724;51.176;-0.708;2024-01-11T02:56:52;17;16;
55518;PMS5003;41724;51.176;-0.708;2024-01-11T02:59:19;20;18;
55518;PMS5003;41724;51.176;-0.708;2024-01-11T03:01:46;15;15;
55518;PMS5003;41724;51.176;-0.708;2024-01-11T03:04:14;13;12;
55518;PMS5003;41724;51.176;-0.708;2024-01-11T03:06:41;16;11;
55518;PMS5003;41724;51.176;-0.708;2024-01-11T03:09:08;18;16;
55518;PMS5003;41724;51.176;-0.708;2024-01-11T03:11:36;12;11;
55518;PMS5003;41724;51.176;-0.708;2024-01-11T03:14:03;11;11;
55518;PMS5003;41724;51.176;-0.708;2024-01-11T03:16:30;13;13;
55518;PMS5003;41724;51.176;-0.708;2024-01-11T03:18:58;13;11;
55518;PMS5003;41724;51.176;-0.708;2024-01-11T03:21:25;13;12;
55518;PMS5003;41724;51.176;-0.708;2024-01-11T03:23:53;16;14;
55518;PMS5003;41724;51.176;-0.708;2024-01-11T03:26:20;14;12;
55518;PMS5003;41724;51.176;-0.708;2024-01-11T03:28:46;16;14;
55518;PMS5003;41724;51.176;-0.708;2024-01-11T03:31:13;13;11;
55518;PMS5003;41724;51.176;-0.708;2024-01-11T03:33:41;16;13;
55518;PMS5003;41724;51.176;-0.708;2024-01-11T03:36:08;12;12;
55518;PMS5003;41724;51.176;-0.708;2024-01-11T03:38:36;14;13;
55518;PMS5003;41724;51.176;-0.708;2024-01-11T03:41:07;13;11;
55518;PMS5003;41724;51.176;-0.708;2024-01-11T03:43:35;17;14;
55518;PMS5003;41724;51.176;-0.708;2024-01-11T03:46:03;16;14;
55518;PMS5003;41724;51.176;-0.708;2024-01-11T03:48:30;16;14;
55518;PMS5003;41724;51.176;-0.708;2024-01-11T03:50:57;17;14;
55518;PMS5003;41724;51.176;-0.708;2024-01-11T03:53:24;11;11;
55518;PMS5003;41724;51.176;-0.708;2024-01-11T03:55:52;17;14;
55518;PMS5003;41724;51.176;-0.708;2024-01-11T03:58:19;12;12;
55518;PMS5003;41724;51.176;-0.708;2024-01-11T04:00:46;19;17;
55518;PMS5003;41724;51.176;-0.708;2024-01-11T04:03:13;22;18;
55518;PMS5003;41724;51.176;-0.708;2024-01-11T04:05:41;14;13;
55518;PMS5003;41724;51.176;-0.708;2024-01-11T04:08:08;16;16;
55518;PMS5003;41724;51.176;-0.708;2024-01-11T04:10:35;16;13;
55518;PMS5003;41724;51.176;-0.708;2024-01-11T04:13:03;10;10;
55518;PMS5003;41724;51.176;-0.708;2024-01-11T04:15:30;15;13;
55518;PMS5003;41724;51.176;-0.708;2024-01-11T04:17:57;13;12;
55518;PMS5003;41724;51.176;-0.708;2024-01-11T04:20:25;13;12;
55518;PMS5003;41724;51.176;-0.708;2024-01-11T04:22:52;18;17;
55518;PMS5003;41724;51.176;-0.708;2024-01-11T04:25:19;15;13;
55518;PMS5003;41724;51.176;-0.708;2024-01-11T04:27:46;16;15;
55518;PMS5003;41724;51.176;-0.708;2024-01-11T04:30:14;13;12;
55518;PMS5003;41724;51.176;-0.708;2024-01-11T04:32:41;13;13;
55518;PMS5003;41724;51.176;-0.708;2024-01-11T04:35:09;17;13;
55518;PMS5003;41724;51.176;-0.708;2024-01-11T04:37:37;13;12;
55518;PMS5003;41724;51.176;-0.708;2024-01-11T04:40:05;13;12;
55518;PMS5003;41724;51.176;-0.708;2024-01-11T04:42:33;14;12;
55518;PMS5003;41724;51.176;-0.708;2024-01-11T04:45:00;13;13;
55518;PMS5003;41724;51.176;-0.708;2024-01-11T04:47:28;16;13;
55518;PMS5003;41724;51.176;-0.708;2024-01-11T04:49:55;19;17;
55518;PMS5003;41724;51.176;-0.708;2024-01-11T04:52:22;16;12;
55518;PMS5003;41724;51.176;-0.708;2024-01-11T04:54:49;17;14;
55518;PMS5003;41724;51.176;-0.708;2024-01-11T04:57:16;14;14;
55518;PMS5003;41724;51.176;-0.708;2024-01-11T04:59:43;19;18;
55518;PMS5003;41724;51.176;-0.708;2024-01-11T05:02:10;16;16;
55518;PMS5003;41724;51.176;-0.708;2024-01-11T05:04:39;12;11;
55518;PMS5003;41724;51.176;-0.708;2024-01-11T05:07:06;15;13;
55518;PMS5003;41724;51.176;-0.708;2024-01-11T05:09:33;14;14;
55518;PMS5003;41724;51.176;-0.708;2024-01-11T05:12:00;21;18;
55518;PMS5003;41724;51.176;-0.708;2024-01-11T05:14:27;13;12;
55518;PMS5003;41724;51.176;-0.708;2024-01-11T05:16:54;11;11;
55518;PMS5003;41724;51.176;-0.708;2024-01-11T05:19:22;13;12;
55518;PMS5003;41724;51.176;-0.708;2024-01-11T05:21:49;11;11;
55518;PMS5003;41724;51.176;-0.708;2024-01-11T05:24:17;12;12;
55518;PMS5003;41724;51.176;-0.708;2024-01-11T05:26:45;14;12;
55518;PMS5003;41724;51.176;-0.708;2024-01-11T05:29:13;12;11;
55518;PMS5003;41724;51.176;-0.708;2024-01-11T05:31:40;9;9;
55518;PMS5003;41724;51.176;-0.708;2024-01-11T05:34:08;16;12;
55518;PMS5003;41724;51.176;-0.708;2024-01-11T05:36:35;17;15;
55518;PMS5003;41724;51.176;-0.708;2024-01-11T05:39:02;12;12;
55518;PMS5003;41724;51.176;-0.708;2024-01-11T05:41:29;14;12;
55518;PMS5003;41724;51.176;-0.708;2024-01-11T05:43:56;18;17;
55518;PMS5003;41724;51.176;-0.708;2024-01-11T05:46:23;13;12;
55518;PMS5003;41724;51.176;-0.708;2024-01-11T05:48:50;21;19;
55518;PMS5003;41724;51.176;-0.708;2024-01-11T05:51:18;14;12;
55518;PMS5003;41724;51.176;-0.708;2024-01-11T05:53:45;16;13;
55518;PMS5003;41724;51.176;-0.708;2024-01-11T05:56:12;15;13;
55518;PMS5003;41724;51.176;-0.708;2024-01-11T05:58:40;13;13;
55518;PMS5003;41724;51.176;-0.708;2024-01-11T06:01:06;20;18;
55518;PMS5003;41724;51.176;-0.708;2024-01-11T06:03:33;17;16;
55518;PMS5003;41724;51.176;-0.708;2024-01-11T06:06:00;17;15;
55518;PMS5003;41724;51.176;-0.708;2024-01-11T06:08:28;20;20;
55518;PMS5003;41724;51.176;-0.708;2024-01-11T06:10:55;22;17;
55518;PMS5003;41724;51.176;-0.708;2024-01-11T06:13:23;21;18;
55518;PMS5003;41724;51.176;-0.708;2024-01-11T06:15:50;15;15;
55518;PMS5003;41724;51.176;-0.708;2024-01-11T06:18:18;20;17;
55518;PMS5003;41724;51.176;-0.708;2024-01-11T06:20:45;17;15;
55518;PMS5003;41724;51.176;-0.708;2024-01-11T06:23:12;19;15;
55518;PMS5003;41724;51.176;-0.708;2024-01-11T06:25:39;21;16;
55518;PMS5003;41724;51.176;-0.708;2024-01-11T06:28:06;17;17;
55518;PMS5003;41724;51.176;-0.708;2024-01-11T06:30:33;19;16;
55518;PMS5003;41724;51.176;-0.708;2024-01-11T06:33:00;16;16;
55518;PMS5003;41724;51.176;-0.708;2024-01-11T06:35:28;13;12;
55518;PMS5003;41724;51.176;-0.708;2024-01-11T06:37:55;26;21;
55518;PMS5003;41724;51.176;-0.708;2024-01-11T06:40:22;19;17;
55518;PMS5003;41724;51.176;-0.708;2024-01-11T06:42:49;20;19;
55518;PMS5003;41724;51.176;-0.708;2024-01-11T06:45:17;22;20;
55518;PMS5003;41724;51.176;-0.708;2024-01-11T06:47:44;19;17;
55518;PMS5003;41724;51.176;-0.708;2024-01-11T06:50:11;16;16;
55518;PMS5003;41724;51.176;-0.708;2024-01-11T06:52:39;17;16;
55518;PMS5003;41724;51.176;-0.708;2024-01-11T06:55:07;20;17;
55518;PMS5003;41724;51.176;-0.708;2024-01-11T06:57:34;20;16;
55518;PMS5003;41724;51.176;-0.708;2024-01-11T07:00:02;19;17;
55518;PMS5003;41724;51.176;-0.708;2024-01-11T07:02:30;22;22;
55518;PMS5003;41724;51.176;-0.708;2024-01-11T07:04:57;20;19;
55518;PMS5003;41724;51.176;-0.708;2024-01-11T07:07:24;19;17;
55518;PMS5003;41724;51.176;-0.708;2024-01-11T07:09:51;19;17;
55518;PMS5003;41724;51.176;-0.708;2024-01-11T07:12:19;20;19;
55518;PMS5003;41724;51.176;-0.708;2024-01-11T07:14:46;16;15;
55518;PMS5003;41724;51.176;-0.708;2024-01-11T07:17:13;17;15;
55518;PMS5003;41724;51.176;-0.708;2024-01-11T07:19:40;17;17;
55518;PMS5003;41724;51.176;-0.708;2024-01-11T07:22:07;16;16;
55518;PMS5003;41724;51.176;-0.708;2024-01-11T07:24:34;17;14;
55518;PMS5003;41724;51.176;-0.708;2024-01-11T07:27:01;22;21;
55518;PMS5003;41724;51.176;-0.708;2024-01-11T07:29:28;19;19;
55518;PMS5003;41724;51.176;-0.708;2024-01-11T07:31:55;16;15;
55518;PMS5003;41724;51.176;-0.708;2024-01-11T07:34:22;19;19;
55518;PMS5003;41724;51.176;-0.708;2024-01-11T07:36:49;20;19;
55518;PMS5003;41724;51.176;-0.708;2024-01-11T07:39:16;21;20;
55518;PMS5003;41724;51.176;-0.708;2024-01-11T07:41:44;17;15;
55518;PMS5003;41724;51.176;-0.708;2024-01-11T07:44:12;24;21;
55518;PMS5003;41724;51.176;-0.708;2024-01-11T07:46:38;19;17;
55518;PMS5003;41724;51.176;-0.708;2024-01-11T07:49:06;16;14;
55518;PMS5003;41724;51.176;-0.708;2024-01-11T07:51:33;16;16;
55518;PMS5003;41724;51.176;-0.708;2024-01-11T07:54:00;15;15;
55518;PMS5003;41724;51.176;-0.708;2024-01-11T07:56:27;20;19;
55518;PMS5003;41724;51.176;-0.708;2024-01-11T07:58:55;16;15;
55518;PMS5003;41724;51.176;-0.708;2024-01-11T08:01:22;24;20;
55518;PMS5003;41724;51.176;-0.708;2024-01-11T08:03:49;20;19;
55518;PMS5003;41724;51.176;-0.708;2024-01-11T08:06:16;27;23;
55518;PMS5003;41724;51.176;-0.708;2024-01-11T08:08:43;21;20;
55518;PMS5003;41724;51.176;-0.708;2024-01-11T08:11:11;24;19;
55518;PMS5003;41724;51.176;-0.708;2024-01-11T08:13:38;21;20;
55518;PMS5003;41724;51.176;-0.708;2024-01-11T08:16:05;27;24;
55518;PMS5003;41724;51.176;-0.708;2024-01-11T08:18:32;19;19;
55518;PMS5003;41724;51.176;-0.708;2024-01-11T08:20:59;22;22;
55518;PMS5003;41724;51.176;-0.708;2024-01-11T08:23:26;23;22;
55518;PMS5003;41724;51.176;-0.708;2024-01-11T08:25:53;22;22;
55518;PMS5003;41724;51.176;-0.708;2024-01-11T08:28:20;24;21;
55518;PMS5003;41724;51.176;-0.708;2024-01-11T08:30:47;24;21;
55518;PMS5003;41724;51.176;-0.708;2024-01-11T08:33:14;20;20;
55518;PMS5003;41724;51.176;-0.708;2024-01-11T08:35:41;22;20;
55518;PMS5003;41724;51.176;-0.708;2024-01-11T08:38:08;22;19;
55518;PMS5003;41724;51.176;-0.708;2024-01-11T08:40:35;21;19;
55518;PMS5003;41724;51.176;-0.708;2024-01-11T08:43:03;17;16;
55518;PMS5003;41724;51.176;-0.708;2024-01-11T08:45:30;20;16;
55518;PMS5003;41724;51.176;-0.708;2024-01-11T08:47:58;21;16;
55518;PMS5003;41724;51.176;-0.708;2024-01-11T08:50:25;15;15;
55518;PMS5003;41724;51.176;-0.708;2024-01-11T08:52:52;16;15;
55518;PMS5003;41724;51.176;-0.708;2024-01-11T08:55:20;15;15;
55518;PMS5003;41724;51.176;-0.708;2024-01-11T08:57:47;27;25;
55518;PMS5003;41724;51.176;-0.708;2024-01-11T09:00:14;24;21;
55518;PMS5003;41724;51.176;-0.708;2024-01-11T09:02:42;26;25;
55518;PMS5003;41724;51.176;-0.708;2024-01-11T09:05:09;22;22;
55518;PMS5003;41724;51.176;-0.708;2024-01-11T09:07:36;24;21;
55518;PMS5003;41724;51.176;-0.708;2024-01-11T09:10:04;30;29;
55518;PMS5003;41724;51.176;-0.708;2024-01-11T09:12:32;42;38;
55518;PMS5003;41724;51.176;-0.708;2024-01-11T09:14:59;36;33;
55518;PMS5003;41724;51.176;-0.708;2024-01-11T09:17:26;39;34;
55518;PMS5003;41724;51.176;-0.708;2024-01-11T09:19:53;30;27;
55518;PMS5003;41724;51.176;-0.708;2024-01-11T09:22:21;23;21;
55518;PMS5003;41724;51.176;-0.708;2024-01-11T09:24:48;22;21;
55518;PMS5003;41724;51.176;-0.708;2024-01-11T09:27:15;15;13;
55518;PMS5003;41724;51.176;-0.708;2024-01-11T09:29:42;16;16;
55518;PMS5003;41724;51.176;-0.708;2024-01-11T09:32:10;16;14;
55518;PMS5003;41724;51.176;-0.708;2024-01-11T09:34:37;14;13;
55518;PMS5003;41724;51.176;-0.708;2024-01-11T09:37:04;22;21;
55518;PMS5003;41724;51.176;-0.708;2024-01-11T09:39:31;20;18;
55518;PMS5003;41724;51.176;-0.708;2024-01-11T09:41:59;17;16;
55518;PMS5003;41724;51.176;-0.708;2024-01-11T09:44:33;14;13;
55518;PMS5003;41724;51.176;-0.708;2024-01-11T09:47:01;16;16;
55518;PMS5003;41724;51.176;-0.708;2024-01-11T09:49:30;16;14;
55518;PMS5003;41724;51.176;-0.708;2024-01-11T09:51:58;19;18;
55518;PMS5003;41724;51.176;-0.708;2024-01-11T09:54:26;14;14;
55518;PMS5003;41724;51.176;-0.708;2024-01-11T09:56:54;19;18;
55518;PMS5003;41724;51.176;-0.708;2024-01-11T09:59:23;12;12;
55518;PMS5003;41724;51.176;-0.708;2024-01-11T10:01:51;17;15;
55518;PMS5003;41724;51.176;-0.708;2024-01-11T10:04:18;18;17;
55518;PMS5003;41724;51.176;-0.708;2024-01-11T10:06:45;23;21;
55518;PMS5003;41724;51.176;-0.708;2024-01-11T10:09:13;17;17;
55518;PMS5003;41724;51.176;-0.708;2024-01-11T10:11:40;19;15;
55518;PMS5003;41724;51.176;-0.708;2024-01-11T10:14:07;19;15;
55518;PMS5003;41724;51.176;-0.708;2024-01-11T10:16:34;14;13;
55518;PMS5003;41724;51.176;-0.708;2024-01-11T10:19:01;15;15;
55518;PMS5003;41724;51.176;-0.708;2024-01-11T10:21:29;16;14;
55518;PMS5003;41724;51.176;-0.708;2024-01-11T10:23:57;14;13;
55518;PMS5003;41724;51.176;-0.708;2024-01-11T10:26:24;19;16;
55518;PMS5003;41724;51.176;-0.708;2024-01-11T10:28:51;18;16;
55518;PMS5003;41724;51.176;-0.708;2024-01-11T10:31:18;16;16;
55518;PMS5003;41724;51.176;-0.708;2024-01-11T10:33:48;24;20;
55518;PMS5003;41724;51.176;-0.708;2024-01-11T10:36:15;23;20;
55518;PMS5003;41724;51.176;-0.708;2024-01-11T10:38:44;16;14;
55518;PMS5003;41724;51.176;-0.708;2024-01-11T10:41:14;15;15;
55518;PMS5003;41724;51.176;-0.708;2024-01-11T10:43:46;17;16;
55518;PMS5003;41724;51.176;-0.708;2024-01-11T10:46:15;14;12;
55518;PMS5003;41724;51.176;-0.708;2024-01-11T10:48:49;22;21;
55518;PMS5003;41724;51.176;-0.708;2024-01-11T10:51:22;15;15;
55518;PMS5003;41724;51.176;-0.708;2024-01-11T10:53:49;16;16;
55518;PMS5003;41724;51.176;-0.708;2024-01-11T10:56:17;18;16;
55518;PMS5003;41724;51.176;-0.708;2024-01-11T10:58:46;17;16;
55518;PMS5003;41724;51.176;-0.708;2024-01-11T11:01:14;18;16;
55518;PMS5003;41724;51.176;-0.708;2024-01-11T11:03:44;17;15;
55518;PMS5003;41724;51.176;-0.708;2024-01-11T11:06:14;17;15;
55518;PMS5003;41724;51.176;-0.708;2024-01-11T11:08:46;16;16;
55518;PMS5003;41724;51.176;-0.708;2024-01-11T11:11:15;16;15;
55518;PMS5003;41724;51.176;-0.708;2024-01-11T11:13:46;15;14;
55518;PMS5003;41724;51.176;-0.708;2024-01-11T11:16:14;17;15;
55518;PMS5003;41724;51.176;-0.708;2024-01-11T11:18:41;13;12;
55518;PMS5003;41724;51.176;-0.708;2024-01-11T11:21:08;17;15;
55518;PMS5003;41724;51.176;-0.708;2024-01-11T11:23:36;13;13;
55518;PMS5003;41724;51.176;-0.708;2024-01-11T11:26:05;13;13;
55518;PMS5003;41724;51.176;-0.708;2024-01-11T11:28:33;13;13;
55518;PMS5003;41724;51.176;-0.708;2024-01-11T11:30:59;16;15;
55518;PMS5003;41724;51.176;-0.708;2024-01-11T11:33:28;13;13;
55518;PMS5003;41724;51.176;-0.708;2024-01-11T11:35:57;13;12;
55518;PMS5003;41724;51.176;-0.708;2024-01-11T11:38:25;15;13;
55518;PMS5003;41724;51.176;-0.708;2024-01-11T11:40:53;19;18;
55518;PMS5003;41724;51.176;-0.708;2024-01-11T11:43:23;19;18;
55518;PMS5003;41724;51.176;-0.708;2024-01-11T11:45:52;15;14;
55518;PMS5003;41724;51.176;-0.708;2024-01-11T11:48:52;12;11;
55518;PMS5003;41724;51.176;-0.708;2024-01-11T11:51:20;14;13;
55518;PMS5003;41724;51.176;-0.708;2024-01-11T11:53:48;15;14;
55518;PMS5003;41724;51.176;-0.708;2024-01-11T11:56:17;22;22;
55518;PMS5003;41724;51.176;-0.708;2024-01-11T11:58:45;14;14;
55518;PMS5003;41724;51.176;-0.708;2024-01-11T12:01:13;14;13;
55518;PMS5003;41724;51.176;-0.708;2024-01-11T12:03:41;15;13;
55518;PMS5003;41724;51.176;-0.708;2024-01-11T12:06:08;14;13;
55518;PMS5003;41724;51.176;-0.708;2024-01-11T12:08:37;15;14;
55518;PMS5003;41724;51.176;-0.708;2024-01-11T12:11:09;12;11;
55518;PMS5003;41724;51.176;-0.708;2024-01-11T12:13:40;19;15;
55518;PMS5003;41724;51.176;-0.708;2024-01-11T12:16:08;12;11;
55518;PMS5003;41724;51.176;-0.708;2024-01-11T12:18:35;14;13;
55518;PMS5003;41724;51.176;-0.708;2024-01-11T12:21:03;10;10;
55518;PMS5003;41724;51.176;-0.708;2024-01-11T12:23:30;14;12;
55518;PMS5003;41724;51.176;-0.708;2024-01-11T12:25:58;12;10;
55518;PMS5003;41724;51.176;-0.708;2024-01-11T12:28:26;11;11;
55518;PMS5003;41724;51.176;-0.708;2024-01-11T12:30:54;9;9;
55518;PMS5003;41724;51.176;-0.708;2024-01-11T12:33:21;11;11;
55518;PMS5003;41724;51.176;-0.708;2024-01-11T12:35:48;13;11;
55518;PMS5003;41724;51.176;-0.708;2024-01-11T12:38:15;10;10;
55518;PMS5003;41724;51.176;-0.708;2024-01-11T12:40:42;13;12;
55518;PMS5003;41724;51.176;-0.708;2024-01-11T12:43:10;12;12;
55518;PMS5003;41724;51.176;-0.708;2024-01-11T12:45:38;11;10;
55518;PMS5003;41724;51.176;-0.708;2024-01-11T12:48:06;12;10;
55518;PMS5003;41724;51.176;-0.708;2024-01-11T12:50:34;10;8;
55518;PMS5003;41724;51.176;-0.708;2024-01-11T12:53:06;8;8;
55518;PMS5003;41724;51.176;-0.708;2024-01-11T12:55:34;7;7;
55518;PMS5003;41724;51.176;-0.708;2024-01-11T12:58:03;6;6;
55518;PMS5003;41724;51.176;-0.708;2024-01-11T13:00:31;6;6;
55518;PMS5003;41724;51.176;-0.708;2024-01-11T13:02:59;8;6;
55518;PMS5003;41724;51.176;-0.708;2024-01-11T13:05:26;7;7;
55518;PMS5003;41724;51.176;-0.708;2024-01-11T13:07:53;5;5;
55518;PMS5003;41724;51.176;-0.708;2024-01-11T13:10:20;7;6;
55518;PMS5003;41724;51.176;-0.708;2024-01-11T13:12:48;7;6;
55518;PMS5003;41724;51.176;-0.708;2024-01-11T13:15:15;5;4;
55518;PMS5003;41724;51.176;-0.708;2024-01-11T13:17:42;9;9;
55518;PMS5003;41724;51.176;-0.708;2024-01-11T13:20:10;7;6;
55518;PMS5003;41724;51.176;-0.708;2024-01-11T13:22:38;7;6;
55518;PMS5003;41724;51.176;-0.708;2024-01-11T13:25:05;5;5;
55518;PMS5003;41724;51.176;-0.708;2024-01-11T13:27:32;9;7;
55518;PMS5003;41724;51.176;-0.708;2024-01-11T13:30:00;6;5;
55518;PMS5003;41724;51.176;-0.708;2024-01-11T13:32:27;7;6;
55518;PMS5003;41724;51.176;-0.708;2024-01-11T13:34:54;6;6;
55518;PMS5003;41724;51.176;-0.708;2024-01-11T13:37:21;7;7;
55518;PMS5003;41724;51.176;-0.708;2024-01-11T13:39:49;6;5;
55518;PMS5003;41724;51.176;-0.708;2024-01-11T13:42:16;8;8;
55518;PMS5003;41724;51.176;-0.708;2024-01-11T13:44:43;9;8;
55518;PMS5003;41724;51.176;-0.708;2024-01-11T13:47:10;9;8;
55518;PMS5003;41724;51.176;-0.708;2024-01-11T13:49:37;12;12;
55518;PMS5003;41724;51.176;-0.708;2024-01-11T13:52:05;11;10;
55518;PMS5003;41724;51.176;-0.708;2024-01-11T13:54:32;10;8;
55518;PMS5003;41724;51.176;-0.708;2024-01-11T13:56:59;11;10;
55518;PMS5003;41724;51.176;-0.708;2024-01-11T13:59:26;9;9;
55518;PMS5003;41724;51.176;-0.708;2024-01-11T14:01:53;8;6;
55518;PMS5003;41724;51.176;-0.708;2024-01-11T14:04:20;10;10;
55518;PMS5003;41724;51.176;-0.708;2024-01-11T14:06:48;10;10;
55518;PMS5003;41724;51.176;-0.708;2024-01-11T14:09:15;9;9;
55518;PMS5003;41724;51.176;-0.708;2024-01-11T14:11:42;10;10;
55518;PMS5003;41724;51.176;-0.708;2024-01-11T14:14:09;9;7;
55518;PMS5003;41724;51.176;-0.708;2024-01-11T14:16:37;11;10;
55518;PMS5003;41724;51.176;-0.708;2024-01-11T14:19:04;12;12;
55518;PMS5003;41724;51.176;-0.708;2024-01-11T14:21:31;7;7;
55518;PMS5003;41724;51.176;-0.708;2024-01-11T14:23:58;7;6;
55518;PMS5003;41724;51.176;-0.708;2024-01-11T14:26:26;5;5;
55518;PMS5003;41724;51.176;-0.708;2024-01-11T14:28:53;8;7;
55518;PMS5003;41724;51.176;-0.708;2024-01-11T14:31:20;10;9;
55518;PMS5003;41724;51.176;-0.708;2024-01-11T14:33:47;7;6;
55518;PMS5003;41724;51.176;-0.708;2024-01-11T14:36:14;7;7;
55518;PMS5003;41724;51.176;-0.708;2024-01-11T14:38:42;6;6;
55518;PMS5003;41724;51.176;-0.708;2024-01-11T14:41:09;9;6;
55518;PMS5003;41724;51.176;-0.708;2024-01-11T14:43:36;7;7;
55518;PMS5003;41724;51.176;-0.708;2024-01-11T14:46:03;9;9;
55518;PMS5003;41724;51.176;-0.708;2024-01-11T14:48:31;7;7;
55518;PMS5003;41724;51.176;-0.708;2024-01-11T14:50:58;6;6;
55518;PMS5003;41724;51.176;-0.708;2024-01-11T14:53:25;7;7;
55518;PMS5003;41724;51.176;-0.708;2024-01-11T14:55:52;5;5;
55518;PMS5003;41724;51.176;-0.708;2024-01-11T14:58:20;6;6;
55518;PMS5003;41724;51.176;-0.708;2024-01-11T15:00:47;24;23;
55518;PMS5003;41724;51.176;-0.708;2024-01-11T15:03:14;37;36;
55518;PMS5003;41724;51.176;-0.708;2024-01-11T15:05:41;49;48;
55518;PMS5003;41724;51.176;-0.708;2024-01-11T15:08:09;92;86;
55518;PMS5003;41724;51.176;-0.708;2024-01-11T15:10:36;26;23;
55518;PMS5003;41724;51.176;-0.708;2024-01-11T15:13:03;15;15;
55518;PMS5003;41724;51.176;-0.708;2024-01-11T15:15:30;7;7;
55518;PMS5003;41724;51.176;-0.708;2024-01-11T15:17:57;18;16;
55518;PMS5003;41724;51.176;-0.708;2024-01-11T15:20:24;13;13;
55518;PMS5003;41724;51.176;-0.708;2024-01-11T15:22:51;19;18;
55518;PMS5003;41724;51.176;-0.708;2024-01-11T15:25:18;15;14;
55518;PMS5003;41724;51.176;-0.708;2024-01-11T15:27:46;14;14;
55518;PMS5003;41724;51.176;-0.708;2024-01-11T15:30:13;19;18;
55518;PMS5003;41724;51.176;-0.708;2024-01-11T15:32:40;18;16;
55518;PMS5003;41724;51.176;-0.708;2024-01-11T15:35:08;15;15;
55518;PMS5003;41724;51.176;-0.708;2024-01-11T15:37:35;10;7;
55518;PMS5003;41724;51.176;-0.708;2024-01-11T15:40:03;10;10;
55518;PMS5003;41724;51.176;-0.708;2024-01-11T15:42:31;7;7;
55518;PMS5003;41724;51.176;-0.708;2024-01-11T15:44:58;21;19;
55518;PMS5003;41724;51.176;-0.708;2024-01-11T15:47:25;11;11;
55518;PMS5003;41724;51.176;-0.708;2024-01-11T15:49:52;14;14;
55518;PMS5003;41724;51.176;-0.708;2024-01-11T15:52:20;13;13;
55518;PMS5003;41724;51.176;-0.708;2024-01-11T15:54:47;23;22;
55518;PMS5003;41724;51.176;-0.708;2024-01-11T15:57:13;10;10;
55518;PMS5003;41724;51.176;-0.708;2024-01-11T15:59:41;11;11;
55518;PMS5003;41724;51.176;-0.708;2024-01-11T16:02:08;12;12;
55518;PMS5003;41724;51.176;-0.708;2024-01-11T16:04:35;12;12;
55518;PMS5003;41724;51.176;-0.708;2024-01-11T16:07:03;11;11;
55518;PMS5003;41724;51.176;-0.708;2024-01-11T16:09:29;11;9;